Time;durP1;ratioP1;P1;durP2;ratioP2;P2;SDS_P1;SDS_P2;PMS_P1;PMS_P2;Temp;Humidity;BMP_temperature;BMP_pressure;BME280_temperature;BME280_humidity;BME280_pressure;Samples;Min_cycle;Max_cycle;Signal;HPM_P1;HPM_P2
2022/01/25 00:10:43;;;;;;;16.80;7.87;;;5.70;99.90;;;;;;6208305;23;20251;-91
2022/01/25 00:24:16;;;;;;;8.43;7.67;;;5.70;99.90;;;;;;6209990;23;20619;-90
2022/01/25 00:27:36;;;;;;;14.77;7.00;;;5.70;99.90;;;;;;6140957;23;20241;-90
2022/01/25 00:30:21;;;;;;;10.50;6.87;;;5.60;99.90;;;;;;6209409;23;20698;-90
2022/01/25 00:32:45;;;;;;;22.40;8.80;;;5.70;99.90;;;;;;6186881;23;20639;-90
2022/01/25 00:35:11;;;;;;;8.07;7.27;;;5.60;99.90;;;;;;6158863;23;20281;-90
2022/01/25 00:37:37;;;;;;;10.00;6.97;;;5.70;99.90;;;;;;6158424;23;20197;-90
2022/01/25 00:40:04;;;;;;;9.10;8.17;;;5.70;99.90;;;;;;6158844;23;20479;-90
2022/01/25 00:42:30;;;;;;;10.40;7.00;;;5.70;99.90;;;;;;6207283;23;20205;-89
2022/01/25 00:44:56;;;;;;;14.63;8.13;;;5.70;99.90;;;;;;6182860;23;20193;-90
2022/01/25 00:47:24;;;;;;;10.37;8.87;;;5.60;99.90;;;;;;6157965;23;20202;-91
2022/01/25 00:49:52;;;;;;;8.43;6.17;;;5.60;99.90;;;;;;6183614;23;20194;-91
2022/01/25 00:54:47;;;;;;;15.87;7.93;;;5.60;99.90;;;;;;6210352;23;20185;-90
2022/01/25 00:57:12;;;;;;;7.87;6.60;;;5.70;99.90;;;;;;6208690;23;20229;-90
2022/01/25 00:59:38;;;;;;;13.60;6.83;;;5.70;99.90;;;;;;6160370;23;20712;-90
2022/01/25 01:02:08;;;;;;;10.87;6.43;;;5.70;99.90;;;;;;6184431;23;20202;-90
2022/01/25 01:04:35;;;;;;;11.57;8.97;;;5.70;99.90;;;;;;6210226;23;21000;-89
2022/01/25 01:07:03;;;;;;;14.10;9.20;;;5.60;99.90;;;;;;6209848;23;20165;-90
2022/01/25 01:09:34;;;;;;;11.50;7.00;;;5.60;99.90;;;;;;6209400;23;20198;-89
2022/01/25 01:12:06;;;;;;;11.07;8.10;;;5.60;99.90;;;;;;6186131;23;20279;-90
2022/01/25 01:34:13;;;;;;;11.77;6.90;;;5.50;99.90;;;;;;6209741;23;20158;-90
2022/01/25 01:44:50;;;;;;;9.97;6.27;;;5.60;99.90;;;;;;6209529;23;20643;-90
2022/01/25 01:47:24;;;;;;;11.30;6.67;;;5.70;99.90;;;;;;6186696;23;20204;-89
2022/01/25 01:49:50;;;;;;;9.13;5.33;;;5.70;99.90;;;;;;6162985;23;20267;-89
2022/01/25 01:52:16;;;;;;;12.07;7.07;;;5.60;99.90;;;;;;6209387;23;20600;-89
2022/01/25 01:54:41;;;;;;;14.30;7.53;;;5.60;99.90;;;;;;6184928;23;20190;-89
2022/01/25 01:57:08;;;;;;;9.67;8.33;;;5.60;99.90;;;;;;6159737;23;20210;-89
2022/01/25 01:59:37;;;;;;;13.40;7.67;;;5.50;99.90;;;;;;6208533;23;20268;-90
2022/01/25 02:02:04;;;;;;;7.87;6.57;;;5.50;99.90;;;;;;6208444;23;20201;-90
2022/01/25 02:04:31;;;;;;;13.10;6.33;;;5.60;99.90;;;;;;6184496;23;20194;-90
2022/01/25 02:06:57;;;;;;;14.67;7.23;;;5.60;99.90;;;;;;6159831;23;20218;-90
2022/01/25 02:09:23;;;;;;;9.67;7.10;;;5.60;99.90;;;;;;6159020;23;20190;-90
2022/01/25 02:11:48;;;;;;;17.60;6.70;;;5.60;99.90;;;;;;6209234;23;20204;-90
2022/01/25 02:14:16;;;;;;;8.37;5.67;;;5.60;99.90;;;;;;6158880;23;20214;-90
2022/01/25 02:24:45;;;;;;;11.13;6.63;;;5.60;99.90;;;;;;6209723;23;20180;-90
2022/01/25 02:27:11;;;;;;;12.37;6.40;;;5.60;99.90;;;;;;6159394;23;20229;-90
2022/01/25 02:29:38;;;;;;;6.50;5.63;;;5.50;99.90;;;;;;6184282;23;20221;-90
2022/01/25 02:32:05;;;;;;;14.37;8.57;;;5.50;99.90;;;;;;6183946;23;20654;-90
2022/01/25 02:34:31;;;;;;;12.20;9.40;;;5.50;99.90;;;;;;6208701;23;20205;-90
2022/01/25 02:37:01;;;;;;;13.97;8.97;;;5.60;99.90;;;;;;6184333;23;20162;-90
2022/01/25 02:39:27;;;;;;;9.53;6.77;;;5.50;99.90;;;;;;6208019;23;20229;-90
2022/01/25 02:41:53;;;;;;;13.93;6.90;;;5.50;99.90;;;;;;6183282;23;20236;-90
2022/01/25 02:44:25;;;;;;;12.83;8.07;;;5.60;99.90;;;;;;6208765;23;20994;-90
2022/01/25 02:49:17;;;;;;;14.03;9.20;;;5.50;99.90;;;;;;6208760;23;20162;-90
2022/01/25 02:51:47;;;;;;;14.20;5.67;;;5.60;99.90;;;;;;6184633;23;20461;-90
2022/01/25 02:54:14;;;;;;;14.23;9.53;;;5.60;99.90;;;;;;6208256;23;20198;-90
2022/01/25 02:56:43;;;;;;;15.50;5.90;;;5.60;99.90;;;;;;6208246;23;20292;-90
2022/01/25 02:59:10;;;;;;;14.73;9.13;;;5.60;99.90;;;;;;6208832;23;20202;-90
2022/01/25 03:01:37;;;;;;;6.20;5.67;;;5.60;99.90;;;;;;6208270;23;20194;-90
2022/01/25 03:04:04;;;;;;;13.97;9.57;;;5.70;99.90;;;;;;6184566;23;20194;-90
2022/01/25 03:06:30;;;;;;;14.13;8.80;;;5.60;99.90;;;;;;6208329;23;20647;-90
2022/01/25 03:08:57;;;;;;;7.67;6.73;;;5.60;99.90;;;;;;6208483;23;20197;-89
2022/01/25 03:11:24;;;;;;;16.43;10.00;;;5.60;99.90;;;;;;6158598;23;20575;-91
2022/01/25 03:13:53;;;;;;;13.40;9.90;;;5.60;99.90;;;;;;6159767;23;20617;-90
2022/01/25 03:18:56;;;;;;;14.67;7.83;;;5.60;99.90;;;;;;6210452;23;20452;-90
2022/01/25 03:23:55;;;;;;;11.60;7.60;;;5.60;99.90;;;;;;6208162;23;20209;-90
2022/01/25 03:26:22;;;;;;;15.03;6.87;;;5.60;99.90;;;;;;6183309;23;20652;-90
2022/01/25 03:28:48;;;;;;;16.10;8.30;;;5.60;99.90;;;;;;6182201;23;20809;-90
2022/01/25 03:31:15;;;;;;;10.47;7.40;;;5.60;99.90;;;;;;6159245;23;20604;-91
2022/01/25 03:33:41;;;;;;;9.37;7.47;;;5.70;99.90;;;;;;6184113;23;20587;-90
2022/01/25 03:36:07;;;;;;;16.10;8.17;;;5.70;99.90;;;;;;6183618;23;20220;-90
2022/01/25 03:38:38;;;;;;;9.70;7.07;;;5.70;99.90;;;;;;6183397;23;20198;-90
2022/01/25 03:41:07;;;;;;;7.53;6.83;;;5.60;99.90;;;;;;6183664;23;20194;-90
2022/01/25 03:43:34;;;;;;;9.73;8.73;;;5.60;99.90;;;;;;6209546;23;20209;-90
2022/01/25 03:46:10;;;;;;;17.10;9.50;;;5.60;99.90;;;;;;6208559;23;20161;-90
2022/01/25 03:51:01;;;;;;;8.57;7.00;;;5.60;99.90;;;;;;6208039;23;20212;-90
2022/01/25 03:53:27;;;;;;;15.87;10.10;;;5.70;99.90;;;;;;6208052;23;20780;-90
2022/01/25 03:55:53;;;;;;;10.97;6.20;;;5.70;99.90;;;;;;6158702;23;20220;-91
2022/01/25 03:58:20;;;;;;;19.57;7.47;;;5.60;99.90;;;;;;6183481;23;20200;-90
2022/01/25 04:00:46;;;;;;;11.80;7.53;;;5.60;99.90;;;;;;6184147;23;20249;-90
2022/01/25 04:03:27;;;;;;;11.00;7.33;;;5.60;99.90;;;;;;6183076;23;20217;-90
2022/01/25 04:05:55;;;;;;;10.37;9.13;;;5.60;99.90;;;;;;6186546;23;20208;-90
2022/01/25 04:08:21;;;;;;;11.50;8.47;;;5.60;99.90;;;;;;6159356;23;20248;-90
2022/01/25 04:10:48;;;;;;;17.07;8.33;;;5.60;99.90;;;;;;6158495;23;20287;-91
2022/01/25 04:13:14;;;;;;;13.00;9.17;;;5.60;99.90;;;;;;6183288;23;20166;-90
2022/01/25 04:15:43;;;;;;;15.97;7.87;;;5.60;99.90;;;;;;6183682;23;20158;-90
2022/01/25 04:18:26;;;;;;;9.27;6.90;;;5.60;99.90;;;;;;6184002;23;20202;-90
2022/01/25 04:21:01;;;;;;;13.43;9.13;;;5.60;99.90;;;;;;6186791;23;20268;-90
2022/01/25 04:26:11;;;;;;;9.10;5.87;;;5.60;99.90;;;;;;6187625;23;20212;-90
2022/01/25 04:28:37;;;;;;;11.00;9.33;;;5.70;99.90;;;;;;6183151;23;20198;-90
2022/01/25 04:31:03;;;;;;;11.50;6.93;;;5.60;99.90;;;;;;6159648;23;20193;-90
2022/01/25 04:33:39;;;;;;;13.03;10.23;;;5.60;99.90;;;;;;6160280;23;20213;-90
2022/01/25 04:49:36;;;;;;;17.23;8.77;;;5.70;99.90;;;;;;6210001;23;20197;-90
2022/01/25 04:57:41;;;;;;;10.20;5.47;;;5.70;99.90;;;;;;6211421;23;20260;-90
2022/01/25 05:00:21;;;;;;;12.20;7.27;;;5.70;99.90;;;;;;6172792;23;20232;-90
2022/01/25 05:02:55;;;;;;;12.57;7.97;;;5.80;99.90;;;;;;6209895;23;20202;-90
2022/01/25 05:05:32;;;;;;;13.63;9.47;;;5.80;99.90;;;;;;6210071;23;20197;-90
2022/01/25 05:10:31;;;;;;;10.73;7.23;;;5.70;99.90;;;;;;6185402;23;20438;-90
2022/01/25 05:16:02;;;;;;;12.83;7.30;;;5.70;99.90;;;;;;6210625;23;20230;-90
2022/01/25 05:18:36;;;;;;;11.63;6.83;;;5.60;99.90;;;;;;6209474;23;20532;-90
2022/01/25 05:23:47;;;;;;;16.63;8.80;;;5.60;99.90;;;;;;6210225;23;20208;-90
2022/01/25 05:26:12;;;;;;;7.00;6.20;;;5.60;99.90;;;;;;6160478;23;20276;-90
2022/01/25 05:28:39;;;;;;;10.83;8.37;;;5.60;99.90;;;;;;6159987;23;20198;-90
2022/01/25 05:31:05;;;;;;;15.13;8.87;;;5.70;99.90;;;;;;6161708;23;20587;-90
2022/01/25 05:33:31;;;;;;;9.70;8.30;;;5.70;99.90;;;;;;6160125;23;20198;-90
2022/01/25 05:35:57;;;;;;;13.43;8.97;;;5.60;99.90;;;;;;6160131;23;20225;-90
2022/01/25 05:38:23;;;;;;;10.60;6.00;;;5.60;99.90;;;;;;6184789;23;20217;-90
2022/01/25 05:40:59;;;;;;;15.60;8.87;;;5.70;99.90;;;;;;6185164;23;20214;-91
2022/01/25 05:46:14;;;;;;;11.60;7.67;;;5.60;99.90;;;;;;6210875;23;20154;-90
2022/01/25 05:48:40;;;;;;;16.00;8.17;;;5.50;99.90;;;;;;6167981;23;20174;-90
2022/01/25 05:51:06;;;;;;;8.77;6.53;;;5.60;99.90;;;;;;6184603;23;20263;-90
2022/01/25 05:53:32;;;;;;;15.50;7.30;;;5.60;99.90;;;;;;6209723;23;20201;-90
2022/01/25 05:55:58;;;;;;;13.03;8.43;;;5.60;99.90;;;;;;6208625;23;20528;-90
2022/01/25 05:58:25;;;;;;;18.20;9.23;;;5.60;99.90;;;;;;6183377;23;20182;-90
2022/01/25 06:00:52;;;;;;;10.80;8.87;;;5.70;99.90;;;;;;6208828;23;20161;-90
2022/01/25 06:03:18;;;;;;;15.80;8.43;;;5.70;99.90;;;;;;6158462;23;20519;-90
2022/01/25 06:05:44;;;;;;;19.47;11.73;;;5.70;99.90;;;;;;6183347;23;20205;-90
2022/01/25 06:08:10;;;;;;;11.73;7.90;;;5.70;99.90;;;;;;6182605;23;20197;-90
2022/01/25 06:10:37;;;;;;;9.43;8.47;;;5.60;99.90;;;;;;6158433;23;20525;-87
2022/01/25 06:13:03;;;;;;;14.90;10.77;;;5.70;99.90;;;;;;6185147;23;20162;-88
2022/01/25 06:15:30;;;;;;;21.43;15.47;;;5.70;99.90;;;;;;6208997;23;20202;-89
2022/01/25 06:17:55;;;;;;;13.87;9.17;;;5.70;99.90;;;;;;6206559;23;20589;-90
2022/01/25 06:20:21;;;;;;;27.27;8.87;;;5.70;99.90;;;;;;6157814;23;20217;-89
2022/01/25 06:22:47;;;;;;;14.87;8.47;;;5.70;99.90;;;;;;6182797;23;20209;-89
2022/01/25 06:25:13;;;;;;;8.70;7.40;;;5.70;99.90;;;;;;6158862;23;20787;-89
2022/01/25 06:27:41;;;;;;;11.67;7.50;;;5.60;99.90;;;;;;6208455;23;20580;-89
2022/01/25 06:30:08;;;;;;;15.67;8.20;;;5.70;99.90;;;;;;6182952;23;20201;-88
2022/01/25 06:32:35;;;;;;;19.57;11.93;;;5.70;99.90;;;;;;6207781;23;20198;-89
2022/01/25 06:35:01;;;;;;;17.37;9.13;;;5.70;99.90;;;;;;6182754;23;20194;-88
2022/01/25 06:37:26;;;;;;;8.17;6.97;;;5.80;99.90;;;;;;6182645;23;20161;-88
2022/01/25 06:39:52;;;;;;;18.30;10.17;;;5.70;99.90;;;;;;6158829;23;20162;-89
2022/01/25 06:42:18;;;;;;;14.30;8.90;;;5.70;99.90;;;;;;6157504;23;20288;-89
2022/01/25 06:44:44;;;;;;;13.53;10.80;;;5.70;99.90;;;;;;6157493;23;20198;-90
2022/01/25 06:47:10;;;;;;;12.37;9.87;;;5.70;99.90;;;;;;6182806;23;20198;-89
2022/01/25 06:49:36;;;;;;;17.30;8.27;;;5.70;99.90;;;;;;6182026;23;20632;-90
2022/01/25 06:52:02;;;;;;;11.73;7.77;;;5.70;99.90;;;;;;6183431;23;20193;-90
2022/01/25 06:54:31;;;;;;;15.27;11.13;;;5.70;99.90;;;;;;6206294;23;20198;-89
2022/01/25 06:56:56;;;;;;;11.80;6.87;;;5.70;99.90;;;;;;5983326;23;4113081;-89
2022/01/25 06:59:22;;;;;;;20.67;10.60;;;5.70;99.90;;;;;;6183612;23;20221;-89
2022/01/25 07:01:48;;;;;;;12.80;8.33;;;5.80;99.90;;;;;;6159093;23;20232;-90
2022/01/25 07:04:14;;;;;;;8.00;7.20;;;5.70;99.90;;;;;;6184133;23;20242;-90
2022/01/25 07:06:39;;;;;;;18.07;8.33;;;5.70;99.90;;;;;;6159542;23;20162;-90
2022/01/25 07:09:05;;;;;;;12.67;8.70;;;5.70;99.90;;;;;;6158601;23;20269;-89
2022/01/25 07:11:31;;;;;;;13.97;10.63;;;5.70;99.90;;;;;;6158889;23;20200;-91
2022/01/25 07:13:57;;;;;;;16.20;10.17;;;5.70;99.90;;;;;;6158588;23;20186;-89
2022/01/25 07:16:24;;;;;;;12.00;8.57;;;5.70;99.90;;;;;;6159398;23;20241;-90
2022/01/25 07:18:50;;;;;;;10.20;7.03;;;5.70;99.90;;;;;;6160710;23;20162;-89
2022/01/25 07:21:15;;;;;;;10.60;7.17;;;5.70;99.90;;;;;;6158782;23;20701;-90
2022/01/25 07:23:41;;;;;;;13.13;8.73;;;5.70;99.90;;;;;;6158665;23;20202;-88
2022/01/25 07:26:08;;;;;;;16.17;9.67;;;5.70;99.90;;;;;;6183693;23;20194;-89
2022/01/25 07:28:36;;;;;;;9.57;8.60;;;5.70;99.90;;;;;;6183182;23;20280;-91
2022/01/25 07:31:02;;;;;;;7.93;6.63;;;5.80;99.90;;;;;;6185334;23;20269;-89
2022/01/25 07:33:29;;;;;;;15.17;7.17;;;5.80;99.90;;;;;;6184119;23;20224;-89
2022/01/25 07:35:55;;;;;;;13.13;8.00;;;5.80;99.90;;;;;;6158476;23;20197;-91
2022/01/25 07:38:21;;;;;;;13.93;7.50;;;5.80;99.90;;;;;;6210164;23;20194;-89
2022/01/25 07:40:46;;;;;;;9.67;6.30;;;5.80;99.90;;;;;;6211027;23;20277;-89
2022/01/25 07:43:12;;;;;;;9.33;6.93;;;5.80;99.90;;;;;;6184648;23;20564;-90
2022/01/25 07:45:38;;;;;;;19.13;7.67;;;5.70;99.90;;;;;;6185099;23;20193;-89
2022/01/25 07:48:07;;;;;;;9.60;8.50;;;5.80;99.90;;;;;;6159376;23;20190;-88
2022/01/25 07:50:33;;;;;;;9.23;7.90;;;5.80;99.90;;;;;;6207981;23;20221;-88
2022/01/25 07:52:59;;;;;;;17.10;9.53;;;5.80;99.90;;;;;;6208661;23;20209;-88
2022/01/25 07:55:25;;;;;;;13.53;8.87;;;5.80;99.90;;;;;;6181639;23;20166;-89
2022/01/25 07:57:51;;;;;;;11.03;5.83;;;5.80;99.90;;;;;;6209237;23;20599;-88
2022/01/25 08:00:18;;;;;;;13.67;8.60;;;5.80;99.90;;;;;;6207042;23;20190;-89
2022/01/25 08:02:48;;;;;;;9.60;6.83;;;5.80;99.90;;;;;;6182136;23;20198;-88
2022/01/25 08:05:16;;;;;;;13.03;8.87;;;5.80;99.90;;;;;;6207019;23;20198;-89
2022/01/25 08:07:42;;;;;;;11.90;6.77;;;5.90;99.90;;;;;;6207101;23;20194;-90
2022/01/25 08:10:08;;;;;;;14.10;7.33;;;5.80;99.90;;;;;;6183037;23;20253;-86
2022/01/25 08:12:34;;;;;;;12.20;10.90;;;5.80;99.90;;;;;;6181645;23;20213;-87
2022/01/25 08:15:02;;;;;;;10.93;8.10;;;5.80;99.90;;;;;;6157061;23;20637;-85
2022/01/25 08:17:28;;;;;;;12.07;7.97;;;5.80;99.90;;;;;;6206287;23;20198;-86
2022/01/25 08:19:54;;;;;;;9.13;6.67;;;5.80;99.90;;;;;;6182327;23;20198;-89
2022/01/25 08:22:20;;;;;;;14.03;5.90;;;5.80;99.90;;;;;;6209127;23;20272;-89
2022/01/25 08:24:46;;;;;;;9.87;8.10;;;5.80;99.90;;;;;;6183657;23;20608;-90
2022/01/25 08:27:12;;;;;;;14.13;6.80;;;5.80;99.90;;;;;;6182701;23;20200;-89
2022/01/25 08:29:38;;;;;;;11.10;8.43;;;5.80;99.90;;;;;;6158171;23;20985;-90
2022/01/25 08:32:05;;;;;;;15.07;7.93;;;5.80;99.90;;;;;;6158159;23;20650;-90
2022/01/25 08:34:31;;;;;;;12.50;7.07;;;5.80;99.90;;;;;;6182961;23;20630;-89
2022/01/25 08:36:58;;;;;;;14.20;8.20;;;5.80;99.90;;;;;;6183662;23;20159;-90
2022/01/25 08:39:26;;;;;;;14.13;8.27;;;5.80;99.90;;;;;;6183348;23;20252;-89
2022/01/25 08:41:52;;;;;;;14.70;8.23;;;5.80;99.90;;;;;;6207974;23;20202;-89
2022/01/25 08:44:19;;;;;;;12.87;8.53;;;5.80;99.90;;;;;;6182684;23;20214;-89
2022/01/25 08:46:45;;;;;;;10.97;9.93;;;5.80;99.90;;;;;;6207435;23;20224;-89
2022/01/25 08:49:11;;;;;;;9.57;6.77;;;5.80;99.90;;;;;;6158233;23;20158;-89
2022/01/25 08:51:37;;;;;;;17.33;9.63;;;5.80;99.90;;;;;;6183711;23;20178;-88
2022/01/25 08:54:03;;;;;;;16.67;9.40;;;5.80;99.90;;;;;;6207644;23;20229;-89
2022/01/25 08:56:29;;;;;;;11.27;6.97;;;5.80;99.90;;;;;;6182459;23;20221;-89
2022/01/25 08:58:55;;;;;;;10.93;7.77;;;5.90;99.90;;;;;;6207252;23;20202;-89
2022/01/25 09:01:21;;;;;;;12.23;7.53;;;5.90;99.90;;;;;;6182736;23;20245;-89
2022/01/25 09:03:47;;;;;;;14.67;9.50;;;5.90;99.90;;;;;;6183214;23;20186;-89
2022/01/25 09:06:13;;;;;;;14.07;8.93;;;5.80;99.90;;;;;;6182674;23;20194;-90
2022/01/25 09:08:39;;;;;;;11.80;8.83;;;5.80;99.90;;;;;;6207752;23;20253;-89
2022/01/25 09:11:06;;;;;;;19.30;10.03;;;5.90;99.90;;;;;;6157975;23;21182;-89
2022/01/25 09:13:33;;;;;;;18.53;11.80;;;5.90;99.90;;;;;;6158694;23;20200;-89
2022/01/25 09:16:00;;;;;;;13.30;8.40;;;6.00;99.90;;;;;;6158438;23;20584;-89
2022/01/25 09:18:27;;;;;;;15.47;12.10;;;6.00;99.90;;;;;;6209020;23;20218;-89
2022/01/25 09:20:53;;;;;;;12.07;7.13;;;6.00;99.90;;;;;;6183827;23;20196;-89
2022/01/25 09:23:20;;;;;;;20.27;10.57;;;6.00;99.90;;;;;;6184321;23;20205;-90
2022/01/25 09:25:48;;;;;;;16.33;10.10;;;6.00;99.90;;;;;;6184412;23;20646;-90
2022/01/25 09:28:14;;;;;;;17.87;10.40;;;6.10;99.90;;;;;;6209730;23;20166;-90
2022/01/25 09:30:40;;;;;;;17.33;10.53;;;6.10;99.90;;;;;;6185264;23;20162;-90
2022/01/25 09:33:05;;;;;;;21.20;11.10;;;6.00;99.90;;;;;;6183727;23;20225;-89
2022/01/25 09:35:32;;;;;;;26.53;10.50;;;6.00;99.90;;;;;;6159911;23;20202;-91
2022/01/25 09:37:58;;;;;;;19.03;13.80;;;6.10;99.90;;;;;;6209095;23;20189;-86
2022/01/25 09:40:25;;;;;;;13.13;10.70;;;6.10;99.90;;;;;;6208884;23;20305;-89
2022/01/25 09:42:54;;;;;;;11.53;8.73;;;6.00;99.90;;;;;;6210109;23;20205;-90
2022/01/25 09:45:20;;;;;;;19.53;9.23;;;6.10;99.90;;;;;;6160409;23;20226;-90
2022/01/25 09:47:47;;;;;;;17.73;9.87;;;6.20;99.90;;;;;;6183576;23;20202;-90
2022/01/25 09:50:14;;;;;;;13.83;8.87;;;6.20;99.90;;;;;;6211090;23;20989;-90
2022/01/25 09:52:44;;;;;;;16.07;10.03;;;6.20;99.90;;;;;;6209087;23;20198;-90
2022/01/25 09:55:16;;;;;;;17.07;11.83;;;6.20;99.90;;;;;;6184808;23;20158;-90
2022/01/25 09:57:42;;;;;;;14.10;9.37;;;6.20;99.90;;;;;;6209527;23;20197;-90
2022/01/25 10:00:12;;;;;;;10.17;8.60;;;6.20;99.90;;;;;;6184548;23;20284;-91
2022/01/25 10:02:54;;;;;;;26.30;10.83;;;6.20;99.90;;;;;;6184583;23;20210;-90
2022/01/25 10:05:35;;;;;;;21.70;12.03;;;6.20;99.90;;;;;;6209223;23;20198;-91
2022/01/25 10:08:07;;;;;;;9.07;7.93;;;6.20;99.90;;;;;;6209225;23;20248;-90
2022/01/25 10:10:35;;;;;;;19.03;11.10;;;6.30;99.90;;;;;;6209099;23;20196;-90
2022/01/25 10:13:21;;;;;;;12.80;7.67;;;6.30;99.90;;;;;;6184858;23;20168;-91
2022/01/25 10:15:58;;;;;;;14.27;9.53;;;6.30;99.90;;;;;;6209412;23;20332;-91
2022/01/25 10:18:44;;;;;;;16.43;9.03;;;6.30;99.90;;;;;;6186263;23;20315;-90
2022/01/25 10:21:31;;;;;;;6.33;5.73;;;6.20;99.90;;;;;;6208659;23;20682;-90
2022/01/25 10:24:12;;;;;;;7.57;5.30;;;6.20;99.90;;;;;;6183175;23;20554;-90
2022/01/25 10:26:47;;;;;;;15.60;8.90;;;6.10;99.90;;;;;;6210245;23;20655;-90
2022/01/25 10:29:25;;;;;;;7.70;6.23;;;6.20;99.90;;;;;;6208092;23;20235;-90
2022/01/25 10:32:10;;;;;;;11.70;8.67;;;6.20;99.90;;;;;;6183852;23;20787;-90
2022/01/25 10:34:45;;;;;;;15.00;7.23;;;6.20;99.90;;;;;;6209062;23;20197;-89
2022/01/25 10:37:21;;;;;;;18.73;8.87;;;6.20;99.90;;;;;;6210218;23;20153;-88
2022/01/25 10:39:51;;;;;;;21.50;12.67;;;6.10;99.90;;;;;;6183637;23;20169;-87
2022/01/25 10:42:38;;;;;;;14.60;11.30;;;6.20;99.90;;;;;;6183045;23;20194;-87
2022/01/25 10:45:09;;;;;;;16.47;12.20;;;6.20;99.90;;;;;;6208311;23;20746;-86
2022/01/25 10:47:49;;;;;;;11.10;6.40;;;6.30;99.90;;;;;;6207976;23;20249;-89
2022/01/25 10:50:25;;;;;;;14.70;10.10;;;6.20;99.90;;;;;;6208621;23;20674;-90
2022/01/25 10:53:16;;;;;;;12.97;8.70;;;6.10;99.90;;;;;;6208928;23;20626;-89
2022/01/25 10:55:53;;;;;;;18.07;8.73;;;6.10;99.90;;;;;;6183765;23;20209;-89
2022/01/25 10:58:20;;;;;;;16.63;11.57;;;6.20;99.90;;;;;;6208313;23;20143;-89
2022/01/25 11:00:50;;;;;;;8.17;7.47;;;6.10;99.90;;;;;;6184000;23;20204;-89
2022/01/25 11:03:31;;;;;;;12.63;10.40;;;6.20;99.90;;;;;;6207739;23;20202;-90
2022/01/25 11:06:00;;;;;;;12.73;8.70;;;6.20;99.90;;;;;;6208477;23;20197;-90
2022/01/25 11:08:28;;;;;;;14.00;8.17;;;6.20;99.90;;;;;;6208584;23;20201;-90
2022/01/25 11:11:00;;;;;;;9.97;8.60;;;6.20;99.90;;;;;;6159328;23;20916;-90
2022/01/25 11:15:56;;;;;;;12.50;8.87;;;6.20;99.90;;;;;;6209147;23;20158;-90
2022/01/25 11:18:22;;;;;;;13.17;9.67;;;6.20;99.90;;;;;;6158185;23;20208;-90
2022/01/25 11:20:50;;;;;;;15.57;9.27;;;6.30;99.90;;;;;;6183210;23;20225;-90
2022/01/25 11:23:17;;;;;;;15.83;8.63;;;6.30;99.90;;;;;;6182726;23;20288;-89
2022/01/25 11:25:44;;;;;;;15.97;8.97;;;6.20;99.90;;;;;;6183205;23;20276;-89
2022/01/25 11:28:11;;;;;;;11.23;7.23;;;6.20;99.90;;;;;;6159148;23;20866;-90
2022/01/25 11:30:38;;;;;;;16.13;10.13;;;6.20;99.90;;;;;;6208926;23;20527;-90
2022/01/25 11:33:06;;;;;;;12.50;7.90;;;6.20;99.90;;;;;;6157646;23;20197;-90
2022/01/25 11:35:33;;;;;;;9.67;7.17;;;6.20;99.90;;;;;;6207853;23;20198;-89
2022/01/25 11:37:59;;;;;;;17.07;9.50;;;6.20;99.90;;;;;;6182509;23;20194;-90
2022/01/25 11:40:30;;;;;;;9.07;6.80;;;6.10;99.90;;;;;;6179609;23;20162;-90
2022/01/25 11:43:04;;;;;;;10.03;7.03;;;6.10;99.90;;;;;;6209059;23;20177;-90
2022/01/25 11:45:33;;;;;;;12.97;7.30;;;6.20;99.90;;;;;;6207754;23;20200;-90
2022/01/25 11:47:59;;;;;;;14.70;8.10;;;6.30;99.90;;;;;;6207996;23;20208;-89
2022/01/25 11:50:32;;;;;;;15.10;9.17;;;6.20;99.90;;;;;;6182997;23;20284;-90
2022/01/25 11:53:07;;;;;;;11.40;8.97;;;6.20;99.90;;;;;;6182912;23;20193;-91
2022/01/25 11:55:38;;;;;;;20.73;7.57;;;6.20;99.90;;;;;;6208365;23;20541;-90
2022/01/25 11:58:06;;;;;;;19.07;14.43;;;6.10;99.90;;;;;;6208763;23;20240;-91
2022/01/25 12:00:53;;;;;;;14.43;9.63;;;6.20;99.90;;;;;;6214982;23;20205;-92
2022/01/25 12:03:28;;;;;;;20.47;13.30;;;6.30;99.90;;;;;;6209997;23;20614;-91
2022/01/25 12:06:00;;;;;;;15.03;8.27;;;6.30;99.90;;;;;;6211646;23;20204;-92
2022/01/25 12:08:38;;;;;;;13.67;8.93;;;6.30;99.90;;;;;;6209377;23;20197;-91
2022/01/25 12:11:28;;;;;;;15.53;10.00;;;6.20;99.90;;;;;;6208207;23;20198;-91
2022/01/25 12:14:19;;;;;;;9.47;7.13;;;6.10;99.90;;;;;;6208410;23;20204;-91
2022/01/25 12:17:08;;;;;;;17.10;10.10;;;6.10;99.90;;;;;;6208598;23;20530;-91
2022/01/25 12:20:16;;;;;;;11.43;9.00;;;6.00;99.90;;;;;;6208921;23;20326;-91
2022/01/25 12:22:47;;;;;;;11.10;7.00;;;5.90;99.90;;;;;;6190774;23;20530;-90
2022/01/25 12:25:19;;;;;;;12.30;8.87;;;6.00;99.90;;;;;;6211108;23;20482;-92
2022/01/25 12:27:52;;;;;;;19.73;9.03;;;6.00;99.90;;;;;;6209125;23;20229;-91
2022/01/25 12:30:26;;;;;;;12.27;7.87;;;5.90;99.90;;;;;;6208218;23;20216;-92
2022/01/25 12:32:55;;;;;;;13.07;8.67;;;6.00;99.90;;;;;;6208407;23;20194;-91
2022/01/25 12:35:44;;;;;;;12.33;9.00;;;6.10;99.90;;;;;;6208168;23;20198;-91
2022/01/25 12:38:24;;;;;;;16.87;7.47;;;6.10;99.90;;;;;;6208037;23;20243;-92
2022/01/25 12:40:56;;;;;;;9.63;8.80;;;6.10;99.90;;;;;;6209624;23;20208;-92
2022/01/25 12:43:21;;;;;;;13.47;11.10;;;6.00;99.90;;;;;;6207572;23;20343;-91
2022/01/25 12:46:28;;;;;;;12.33;7.97;;;6.10;99.90;;;;;;6208349;23;20811;-91
2022/01/25 12:48:58;;;;;;;17.97;6.73;;;6.10;99.90;;;;;;6207273;23;20186;-92
2022/01/25 12:51:30;;;;;;;6.23;5.70;;;6.00;99.90;;;;;;6207732;23;20201;-92
2022/01/25 12:54:01;;;;;;;9.90;6.70;;;6.10;99.90;;;;;;6209364;23;20209;-92
2022/01/25 12:56:30;;;;;;;13.00;8.93;;;6.00;99.90;;;;;;6209170;23;20293;-91
2022/01/25 12:58:59;;;;;;;18.10;7.77;;;6.00;99.90;;;;;;6209274;23;20205;-92
2022/01/25 13:01:27;;;;;;;10.73;9.43;;;6.00;99.90;;;;;;6208876;23;20169;-91
2022/01/25 13:03:57;;;;;;;13.33;10.30;;;6.00;99.90;;;;;;6161271;23;20193;-92
2022/01/25 13:06:25;;;;;;;25.27;10.03;;;6.00;99.90;;;;;;6209355;23;20308;-91
2022/01/25 13:11:49;;;;;;;21.33;7.50;;;6.00;99.90;;;;;;6213346;23;20193;-92
2022/01/25 13:14:34;;;;;;;10.90;7.90;;;6.10;99.90;;;;;;6211279;23;20204;-93
2022/01/25 13:17:26;;;;;;;13.00;8.87;;;6.00;99.90;;;;;;6188911;23;20216;-92
2022/01/25 13:19:59;;;;;;;23.43;8.03;;;6.00;99.90;;;;;;6189240;23;21176;-91
2022/01/25 13:22:31;;;;;;;14.87;7.17;;;5.90;99.90;;;;;;6184317;23;20158;-91
2022/01/25 13:27:47;;;;;;;9.50;5.33;;;5.90;99.90;;;;;;6209563;23;21006;-91
2022/01/25 13:32:59;;;;;;;16.13;7.23;;;5.90;99.90;;;;;;6208179;23;20980;-93
2022/01/25 13:35:33;;;;;;;12.63;8.43;;;5.90;99.90;;;;;;6184033;23;20197;-91
2022/01/25 13:38:16;;;;;;;21.43;11.27;;;5.90;99.90;;;;;;6208677;23;20243;-91
2022/01/25 13:41:29;;;;;;;14.73;8.00;;;5.90;99.90;;;;;;6210607;23;20202;-92
2022/01/25 13:46:37;;;;;;;10.20;8.63;;;5.90;99.90;;;;;;6209225;23;20198;-91
2022/01/25 13:49:24;;;;;;;11.57;8.20;;;6.00;99.90;;;;;;6209496;23;21116;-91
2022/01/25 13:51:55;;;;;;;16.57;10.73;;;6.00;99.90;;;;;;6183367;23;20196;-91
2022/01/25 13:54:24;;;;;;;17.80;9.33;;;6.00;99.90;;;;;;6208554;23;20624;-92
2022/01/25 13:56:50;;;;;;;11.03;7.50;;;6.00;99.90;;;;;;6208127;23;20237;-91
2022/01/25 13:59:17;;;;;;;9.33;5.87;;;5.90;99.90;;;;;;6210969;23;20198;-92
2022/01/25 14:01:44;;;;;;;10.63;8.73;;;5.90;99.90;;;;;;6161029;23;20201;-91
2022/01/25 14:04:17;;;;;;;17.57;8.20;;;5.90;99.90;;;;;;6160167;23;20189;-92
2022/01/25 14:06:50;;;;;;;26.33;9.47;;;5.80;99.90;;;;;;6208648;23;20174;-92
2022/01/25 14:09:23;;;;;;;15.17;8.23;;;5.80;99.90;;;;;;6183599;23;20635;-91
2022/01/25 14:21:39;;;;;;;15.30;7.43;;;5.80;99.90;;;;;;6208368;23;20193;-91
2022/01/25 14:25:49;;;;;;;13.63;7.83;;;5.90;99.90;;;;;;6210538;23;20302;-90
2022/01/25 14:28:24;;;;;;;7.80;6.57;;;5.80;99.90;;;;;;6183781;23;20165;-91
2022/01/25 14:30:53;;;;;;;10.30;7.37;;;5.80;99.90;;;;;;6161319;23;20158;-89
2022/01/25 14:33:25;;;;;;;8.50;6.80;;;5.80;99.90;;;;;;6185109;23;20698;-94
2022/01/25 14:35:56;;;;;;;10.93;8.83;;;5.80;99.90;;;;;;6208948;23;20201;-91
2022/01/25 14:38:28;;;;;;;8.47;7.37;;;5.80;99.90;;;;;;6208157;23;20236;-91
2022/01/25 14:41:10;;;;;;;17.13;9.43;;;5.80;99.90;;;;;;6208506;23;20197;-91
2022/01/25 14:44:01;;;;;;;11.83;9.10;;;5.80;99.90;;;;;;6208608;23;20293;-91
2022/01/25 14:46:29;;;;;;;11.57;7.43;;;5.70;99.90;;;;;;6208532;23;20151;-90
2022/01/25 14:49:08;;;;;;;12.97;6.73;;;5.80;99.90;;;;;;6209282;23;20159;-90
2022/01/25 14:51:41;;;;;;;14.03;7.33;;;5.80;99.90;;;;;;6208668;23;20655;-91
2022/01/25 14:54:10;;;;;;;16.87;10.30;;;5.70;99.90;;;;;;6208257;23;20208;-91
2022/01/25 14:56:47;;;;;;;15.53;9.73;;;5.70;99.90;;;;;;6208294;23;20205;-90
2022/01/25 14:59:24;;;;;;;22.10;8.23;;;5.80;99.90;;;;;;6208231;23;20201;-90
2022/01/25 15:01:53;;;;;;;19.57;10.43;;;5.80;99.90;;;;;;6163601;23;20643;-91
2022/01/25 15:04:19;;;;;;;11.23;7.93;;;5.60;99.90;;;;;;6208345;23;20182;-90
2022/01/25 15:06:45;;;;;;;9.73;6.40;;;5.70;99.90;;;;;;6184349;23;20161;-91
2022/01/25 15:09:12;;;;;;;5.67;5.17;;;5.60;99.90;;;;;;6158498;23;20194;-90